sensor_id;sensor_type;location;lat;lon;timestamp;P1;durP1;ratioP1;P2;durP2;ratioP2
10013;SDS011;45684;48.358;10.746;2022-10-31T00:01:24;5.90;;;4.80;;
10013;SDS011;45684;48.358;10.746;2022-10-31T00:03:53;8.33;;;4.87;;
10013;SDS011;45684;48.358;10.746;2022-10-31T00:06:21;6.27;;;4.90;;
10013;SDS011;45684;48.358;10.746;2022-10-31T00:08:51;5.50;;;4.80;;
10013;SDS011;45684;48.358;10.746;2022-10-31T00:11:22;7.67;;;4.37;;
10013;SDS011;45684;48.358;10.746;2022-10-31T00:13:50;4.80;;;4.30;;
10013;SDS011;45684;48.358;10.746;2022-10-31T00:16:18;5.63;;;4.70;;
10013;SDS011;45684;48.358;10.746;2022-10-31T00:18:48;7.40;;;5.10;;
10013;SDS011;45684;48.358;10.746;2022-10-31T00:21:16;7.33;;;4.93;;
10013;SDS011;45684;48.358;10.746;2022-10-31T00:23:45;5.37;;;4.83;;
10013;SDS011;45684;48.358;10.746;2022-10-31T00:26:12;5.17;;;4.77;;
10013;SDS011;45684;48.358;10.746;2022-10-31T00:28:42;5.10;;;4.70;;
10013;SDS011;45684;48.358;10.746;2022-10-31T00:31:10;5.50;;;4.73;;
10013;SDS011;45684;48.358;10.746;2022-10-31T00:33:39;4.37;;;3.97;;
10013;SDS011;45684;48.358;10.746;2022-10-31T00:36:10;4.97;;;3.93;;
10013;SDS011;45684;48.358;10.746;2022-10-31T00:38:39;7.77;;;4.43;;
10013;SDS011;45684;48.358;10.746;2022-10-31T00:41:07;6.97;;;4.03;;
10013;SDS011;45684;48.358;10.746;2022-10-31T00:43:37;6.77;;;4.70;;
10013;SDS011;45684;48.358;10.746;2022-10-31T00:46:06;4.67;;;4.27;;
10013;SDS011;45684;48.358;10.746;2022-10-31T00:48:34;4.73;;;4.33;;
10013;SDS011;45684;48.358;10.746;2022-10-31T00:51:02;4.00;;;3.70;;
10013;SDS011;45684;48.358;10.746;2022-10-31T00:53:30;5.20;;;4.37;;
10013;SDS011;45684;48.358;10.746;2022-10-31T00:55:58;4.93;;;4.47;;
10013;SDS011;45684;48.358;10.746;2022-10-31T00:58:26;5.20;;;4.70;;
10013;SDS011;45684;48.358;10.746;2022-10-31T01:00:54;4.70;;;4.30;;
10013;SDS011;45684;48.358;10.746;2022-10-31T01:03:24;4.93;;;4.30;;
10013;SDS011;45684;48.358;10.746;2022-10-31T01:05:57;5.10;;;4.00;;
10013;SDS011;45684;48.358;10.746;2022-10-31T01:08:26;7.77;;;4.30;;
10013;SDS011;45684;48.358;10.746;2022-10-31T01:10:59;4.50;;;4.07;;
10013;SDS011;45684;48.358;10.746;2022-10-31T01:13:31;4.40;;;4.00;;
10013;SDS011;45684;48.358;10.746;2022-10-31T01:16:00;4.97;;;4.27;;
10013;SDS011;45684;48.358;10.746;2022-10-31T01:18:30;4.93;;;4.43;;
10013;SDS011;45684;48.358;10.746;2022-10-31T01:20:58;4.07;;;3.77;;
10013;SDS011;45684;48.358;10.746;2022-10-31T01:23:27;4.20;;;3.90;;
10013;SDS011;45684;48.358;10.746;2022-10-31T01:25:59;4.00;;;3.67;;
10013;SDS011;45684;48.358;10.746;2022-10-31T01:28:35;3.90;;;3.60;;
10013;SDS011;45684;48.358;10.746;2022-10-31T01:31:05;3.80;;;3.50;;
10013;SDS011;45684;48.358;10.746;2022-10-31T01:33:36;4.07;;;3.77;;
10013;SDS011;45684;48.358;10.746;2022-10-31T01:36:12;4.30;;;3.90;;
10013;SDS011;45684;48.358;10.746;2022-10-31T01:38:41;3.90;;;3.60;;
10013;SDS011;45684;48.358;10.746;2022-10-31T01:41:09;6.83;;;3.87;;
10013;SDS011;45684;48.358;10.746;2022-10-31T01:43:43;5.47;;;4.07;;
10013;SDS011;45684;48.358;10.746;2022-10-31T01:46:12;4.97;;;4.37;;
10013;SDS011;45684;48.358;10.746;2022-10-31T01:48:44;6.43;;;4.37;;
10013;SDS011;45684;48.358;10.746;2022-10-31T01:51:13;5.07;;;4.57;;
10013;SDS011;45684;48.358;10.746;2022-10-31T01:53:44;5.97;;;4.27;;
10013;SDS011;45684;48.358;10.746;2022-10-31T01:56:13;4.93;;;4.53;;
10013;SDS011;45684;48.358;10.746;2022-10-31T01:58:44;5.67;;;4.37;;
10013;SDS011;45684;48.358;10.746;2022-10-31T02:01:15;4.30;;;3.90;;
10013;SDS011;45684;48.358;10.746;2022-10-31T02:03:46;4.27;;;3.83;;
10013;SDS011;45684;48.358;10.746;2022-10-31T02:06:19;6.07;;;4.47;;
10013;SDS011;45684;48.358;10.746;2022-10-31T02:08:54;5.13;;;4.00;;
10013;SDS011;45684;48.358;10.746;2022-10-31T02:11:25;4.80;;;4.37;;
10013;SDS011;45684;48.358;10.746;2022-10-31T02:13:55;4.13;;;3.73;;
10013;SDS011;45684;48.358;10.746;2022-10-31T02:16:23;5.33;;;4.27;;
10013;SDS011;45684;48.358;10.746;2022-10-31T02:18:53;4.77;;;4.27;;
10013;SDS011;45684;48.358;10.746;2022-10-31T02:21:22;5.27;;;4.13;;
10013;SDS011;45684;48.358;10.746;2022-10-31T02:24:15;4.47;;;3.70;;
10013;SDS011;45684;48.358;10.746;2022-10-31T02:27:21;6.10;;;4.13;;
10013;SDS011;45684;48.358;10.746;2022-10-31T02:30:11;3.97;;;3.67;;
10013;SDS011;45684;48.358;10.746;2022-10-31T02:32:50;4.27;;;3.87;;
10013;SDS011;45684;48.358;10.746;2022-10-31T02:35:28;4.93;;;4.20;;
10013;SDS011;45684;48.358;10.746;2022-10-31T02:38:11;5.73;;;4.47;;
10013;SDS011;45684;48.358;10.746;2022-10-31T02:40:49;4.30;;;3.90;;
10013;SDS011;45684;48.358;10.746;2022-10-31T02:43:43;4.00;;;3.57;;
10013;SDS011;45684;48.358;10.746;2022-10-31T02:46:23;4.87;;;4.27;;
10013;SDS011;45684;48.358;10.746;2022-10-31T02:48:59;4.50;;;4.10;;
10013;SDS011;45684;48.358;10.746;2022-10-31T02:51:33;5.20;;;3.90;;
10013;SDS011;45684;48.358;10.746;2022-10-31T02:54:02;4.60;;;4.10;;
10013;SDS011;45684;48.358;10.746;2022-10-31T02:56:30;6.50;;;4.40;;
10013;SDS011;45684;48.358;10.746;2022-10-31T02:58:58;6.00;;;4.50;;
10013;SDS011;45684;48.358;10.746;2022-10-31T03:01:33;4.60;;;4.10;;
10013;SDS011;45684;48.358;10.746;2022-10-31T03:07:26;4.77;;;3.77;;
10013;SDS011;45684;48.358;10.746;2022-10-31T03:10:04;5.63;;;4.17;;
10013;SDS011;45684;48.358;10.746;2022-10-31T03:12:38;5.00;;;3.70;;
10013;SDS011;45684;48.358;10.746;2022-10-31T03:15:17;4.10;;;3.80;;
10013;SDS011;45684;48.358;10.746;2022-10-31T03:17:51;5.40;;;3.97;;
10013;SDS011;45684;48.358;10.746;2022-10-31T03:20:27;4.20;;;3.60;;
10013;SDS011;45684;48.358;10.746;2022-10-31T03:23:01;3.90;;;3.60;;
10013;SDS011;45684;48.358;10.746;2022-10-31T03:25:32;4.50;;;3.80;;
10013;SDS011;45684;48.358;10.746;2022-10-31T03:28:03;3.40;;;3.10;;
10013;SDS011;45684;48.358;10.746;2022-10-31T03:30:35;4.00;;;3.60;;
10013;SDS011;45684;48.358;10.746;2022-10-31T03:33:06;4.63;;;3.53;;
10013;SDS011;45684;48.358;10.746;2022-10-31T03:35:39;3.80;;;3.50;;
10013;SDS011;45684;48.358;10.746;2022-10-31T03:38:10;3.90;;;3.60;;
10013;SDS011;45684;48.358;10.746;2022-10-31T03:40:40;4.13;;;3.40;;
10013;SDS011;45684;48.358;10.746;2022-10-31T03:43:13;4.23;;;3.77;;
10013;SDS011;45684;48.358;10.746;2022-10-31T03:45:45;4.27;;;3.70;;
10013;SDS011;45684;48.358;10.746;2022-10-31T03:48:14;4.13;;;3.73;;
10013;SDS011;45684;48.358;10.746;2022-10-31T03:50:47;4.27;;;3.87;;
10013;SDS011;45684;48.358;10.746;2022-10-31T03:53:21;4.90;;;4.40;;
10013;SDS011;45684;48.358;10.746;2022-10-31T03:55:55;5.00;;;4.23;;
10013;SDS011;45684;48.358;10.746;2022-10-31T03:58:27;6.93;;;4.50;;
10013;SDS011;45684;48.358;10.746;2022-10-31T04:00:59;5.70;;;4.40;;
10013;SDS011;45684;48.358;10.746;2022-10-31T04:03:30;6.47;;;4.60;;
10013;SDS011;45684;48.358;10.746;2022-10-31T04:06:03;6.33;;;4.50;;
10013;SDS011;45684;48.358;10.746;2022-10-31T04:08:38;5.10;;;3.90;;
10013;SDS011;45684;48.358;10.746;2022-10-31T04:11:13;26.50;;;18.87;;
10013;SDS011;45684;48.358;10.746;2022-10-31T04:13:53;11.23;;;8.27;;
10013;SDS011;45684;48.358;10.746;2022-10-31T04:16:22;12.60;;;8.67;;
10013;SDS011;45684;48.358;10.746;2022-10-31T04:18:52;11.60;;;7.67;;
10013;SDS011;45684;48.358;10.746;2022-10-31T04:21:25;6.77;;;5.03;;
10013;SDS011;45684;48.358;10.746;2022-10-31T04:23:54;9.47;;;6.93;;
10013;SDS011;45684;48.358;10.746;2022-10-31T04:26:25;9.30;;;6.57;;
10013;SDS011;45684;48.358;10.746;2022-10-31T04:28:53;6.00;;;4.87;;
10013;SDS011;45684;48.358;10.746;2022-10-31T04:31:21;4.97;;;4.50;;
10013;SDS011;45684;48.358;10.746;2022-10-31T04:33:49;4.40;;;4.00;;
10013;SDS011;45684;48.358;10.746;2022-10-31T04:36:16;7.13;;;5.43;;
10013;SDS011;45684;48.358;10.746;2022-10-31T04:38:46;5.90;;;5.00;;
10013;SDS011;45684;48.358;10.746;2022-10-31T04:41:28;5.10;;;4.60;;
10013;SDS011;45684;48.358;10.746;2022-10-31T04:44:01;4.83;;;4.37;;
10013;SDS011;45684;48.358;10.746;2022-10-31T04:46:29;6.97;;;4.83;;
10013;SDS011;45684;48.358;10.746;2022-10-31T04:48:57;7.57;;;6.03;;
10013;SDS011;45684;48.358;10.746;2022-10-31T04:51:25;5.57;;;5.00;;
10013;SDS011;45684;48.358;10.746;2022-10-31T04:53:55;4.80;;;4.40;;
10013;SDS011;45684;48.358;10.746;2022-10-31T04:56:41;4.07;;;3.77;;
10013;SDS011;45684;48.358;10.746;2022-10-31T04:59:14;4.40;;;4.00;;
10013;SDS011;45684;48.358;10.746;2022-10-31T05:01:47;6.13;;;5.40;;
10013;SDS011;45684;48.358;10.746;2022-10-31T05:04:20;5.57;;;4.33;;
10013;SDS011;45684;48.358;10.746;2022-10-31T05:06:48;7.80;;;4.47;;
10013;SDS011;45684;48.358;10.746;2022-10-31T05:09:17;7.50;;;4.73;;
10013;SDS011;45684;48.358;10.746;2022-10-31T05:11:45;8.73;;;4.50;;
10013;SDS011;45684;48.358;10.746;2022-10-31T05:14:33;6.23;;;4.97;;
10013;SDS011;45684;48.358;10.746;2022-10-31T05:17:20;5.70;;;5.07;;
10013;SDS011;45684;48.358;10.746;2022-10-31T05:20:06;5.73;;;4.10;;
10013;SDS011;45684;48.358;10.746;2022-10-31T05:23:03;5.37;;;4.30;;
10013;SDS011;45684;48.358;10.746;2022-10-31T05:25:33;5.10;;;4.23;;
10013;SDS011;45684;48.358;10.746;2022-10-31T05:28:03;5.80;;;4.40;;
10013;SDS011;45684;48.358;10.746;2022-10-31T05:30:32;5.43;;;4.00;;
10013;SDS011;45684;48.358;10.746;2022-10-31T05:33:00;6.57;;;4.63;;
10013;SDS011;45684;48.358;10.746;2022-10-31T05:35:47;7.43;;;4.90;;
10013;SDS011;45684;48.358;10.746;2022-10-31T05:38:34;6.97;;;5.40;;
10013;SDS011;45684;48.358;10.746;2022-10-31T05:41:21;6.97;;;5.13;;
10013;SDS011;45684;48.358;10.746;2022-10-31T05:43:49;6.23;;;4.57;;
10013;SDS011;45684;48.358;10.746;2022-10-31T05:46:21;8.37;;;4.87;;
10013;SDS011;45684;48.358;10.746;2022-10-31T05:49:07;6.27;;;4.53;;
10013;SDS011;45684;48.358;10.746;2022-10-31T05:51:54;5.30;;;4.60;;
10013;SDS011;45684;48.358;10.746;2022-10-31T05:54:30;7.07;;;5.07;;
10013;SDS011;45684;48.358;10.746;2022-10-31T05:56:59;6.67;;;5.00;;
10013;SDS011;45684;48.358;10.746;2022-10-31T05:59:27;4.63;;;4.23;;
10013;SDS011;45684;48.358;10.746;2022-10-31T06:01:57;5.80;;;4.33;;
10013;SDS011;45684;48.358;10.746;2022-10-31T06:04:57;4.40;;;4.00;;
10013;SDS011;45684;48.358;10.746;2022-10-31T06:07:25;5.33;;;4.60;;
10013;SDS011;45684;48.358;10.746;2022-10-31T06:09:54;4.63;;;4.23;;
10013;SDS011;45684;48.358;10.746;2022-10-31T06:12:23;5.67;;;4.43;;
10013;SDS011;45684;48.358;10.746;2022-10-31T06:15:26;4.63;;;4.23;;
10013;SDS011;45684;48.358;10.746;2022-10-31T06:17:58;4.70;;;4.40;;
10013;SDS011;45684;48.358;10.746;2022-10-31T06:20:31;4.87;;;4.40;;
10013;SDS011;45684;48.358;10.746;2022-10-31T06:23:02;4.90;;;4.40;;
10013;SDS011;45684;48.358;10.746;2022-10-31T06:25:32;4.57;;;4.27;;
10013;SDS011;45684;48.358;10.746;2022-10-31T06:28:01;4.63;;;4.33;;
10013;SDS011;45684;48.358;10.746;2022-10-31T06:30:52;5.50;;;4.43;;
10013;SDS011;45684;48.358;10.746;2022-10-31T06:33:21;4.67;;;4.27;;
10013;SDS011;45684;48.358;10.746;2022-10-31T06:35:54;4.80;;;4.40;;
10013;SDS011;45684;48.358;10.746;2022-10-31T06:38:22;4.60;;;4.10;;
10013;SDS011;45684;48.358;10.746;2022-10-31T06:40:50;5.83;;;4.23;;
10013;SDS011;45684;48.358;10.746;2022-10-31T06:43:28;4.90;;;4.20;;
10013;SDS011;45684;48.358;10.746;2022-10-31T06:46:16;5.83;;;4.40;;
10013;SDS011;45684;48.358;10.746;2022-10-31T06:49:03;4.90;;;4.37;;
10013;SDS011;45684;48.358;10.746;2022-10-31T06:51:41;4.83;;;4.40;;
10013;SDS011;45684;48.358;10.746;2022-10-31T06:54:09;5.10;;;4.60;;
10013;SDS011;45684;48.358;10.746;2022-10-31T06:56:36;5.67;;;4.63;;
10013;SDS011;45684;48.358;10.746;2022-10-31T06:59:06;5.13;;;4.60;;
10013;SDS011;45684;48.358;10.746;2022-10-31T07:01:53;5.87;;;4.90;;
10013;SDS011;45684;48.358;10.746;2022-10-31T07:04:22;4.80;;;4.40;;
10013;SDS011;45684;48.358;10.746;2022-10-31T07:06:50;4.90;;;4.50;;
10013;SDS011;45684;48.358;10.746;2022-10-31T07:09:19;5.33;;;4.80;;
10013;SDS011;45684;48.358;10.746;2022-10-31T07:11:46;6.93;;;5.40;;
10013;SDS011;45684;48.358;10.746;2022-10-31T07:14:16;5.90;;;5.40;;
10013;SDS011;45684;48.358;10.746;2022-10-31T07:16:43;6.20;;;5.57;;
10013;SDS011;45684;48.358;10.746;2022-10-31T07:19:15;7.30;;;5.53;;
10013;SDS011;45684;48.358;10.746;2022-10-31T07:21:43;6.83;;;5.50;;
10013;SDS011;45684;48.358;10.746;2022-10-31T07:24:14;6.00;;;5.40;;
10013;SDS011;45684;48.358;10.746;2022-10-31T07:26:42;5.97;;;5.37;;
10013;SDS011;45684;48.358;10.746;2022-10-31T07:29:13;6.00;;;5.40;;
10013;SDS011;45684;48.358;10.746;2022-10-31T07:31:42;6.60;;;5.90;;
10013;SDS011;45684;48.358;10.746;2022-10-31T07:34:16;6.40;;;5.30;;
10013;SDS011;45684;48.358;10.746;2022-10-31T07:37:07;6.17;;;5.57;;
10013;SDS011;45684;48.358;10.746;2022-10-31T07:39:35;5.90;;;5.30;;
10013;SDS011;45684;48.358;10.746;2022-10-31T07:42:03;7.70;;;5.43;;
10013;SDS011;45684;48.358;10.746;2022-10-31T07:44:32;6.93;;;6.17;;
10013;SDS011;45684;48.358;10.746;2022-10-31T07:47:19;9.57;;;7.43;;
10013;SDS011;45684;48.358;10.746;2022-10-31T07:50:06;11.17;;;8.30;;
10013;SDS011;45684;48.358;10.746;2022-10-31T07:53:01;11.43;;;9.10;;
10013;SDS011;45684;48.358;10.746;2022-10-31T07:55:51;10.37;;;8.67;;
10013;SDS011;45684;48.358;10.746;2022-10-31T07:58:26;8.90;;;8.00;;
10013;SDS011;45684;48.358;10.746;2022-10-31T08:00:57;6.40;;;5.80;;
10013;SDS011;45684;48.358;10.746;2022-10-31T08:03:35;7.43;;;5.60;;
10013;SDS011;45684;48.358;10.746;2022-10-31T08:06:21;6.33;;;5.73;;
10013;SDS011;45684;48.358;10.746;2022-10-31T08:09:11;6.97;;;6.27;;
10013;SDS011;45684;48.358;10.746;2022-10-31T08:11:39;6.13;;;5.60;;
10013;SDS011;45684;48.358;10.746;2022-10-31T08:14:07;6.83;;;5.90;;
10013;SDS011;45684;48.358;10.746;2022-10-31T08:16:35;6.10;;;5.37;;
10013;SDS011;45684;48.358;10.746;2022-10-31T08:19:06;6.80;;;6.20;;
10013;SDS011;45684;48.358;10.746;2022-10-31T08:21:36;7.10;;;6.40;;
10013;SDS011;45684;48.358;10.746;2022-10-31T08:24:07;6.57;;;6.07;;
10013;SDS011;45684;48.358;10.746;2022-10-31T08:26:35;7.97;;;6.33;;
10013;SDS011;45684;48.358;10.746;2022-10-31T08:29:05;7.27;;;6.53;;
10013;SDS011;45684;48.358;10.746;2022-10-31T08:31:35;7.13;;;6.43;;
10013;SDS011;45684;48.358;10.746;2022-10-31T08:34:28;7.17;;;6.50;;
10013;SDS011;45684;48.358;10.746;2022-10-31T08:37:16;8.60;;;6.53;;
10013;SDS011;45684;48.358;10.746;2022-10-31T08:39:50;7.40;;;6.63;;
10013;SDS011;45684;48.358;10.746;2022-10-31T08:42:19;7.90;;;7.13;;
10013;SDS011;45684;48.358;10.746;2022-10-31T08:44:47;7.83;;;7.13;;
10013;SDS011;45684;48.358;10.746;2022-10-31T08:47:18;7.77;;;6.97;;
10013;SDS011;45684;48.358;10.746;2022-10-31T08:49:48;7.83;;;7.03;;
10013;SDS011;45684;48.358;10.746;2022-10-31T08:52:16;7.80;;;7.10;;
10013;SDS011;45684;48.358;10.746;2022-10-31T08:54:46;7.80;;;7.00;;
10013;SDS011;45684;48.358;10.746;2022-10-31T08:57:33;7.93;;;7.17;;
10013;SDS011;45684;48.358;10.746;2022-10-31T09:00:01;7.70;;;6.77;;
10013;SDS011;45684;48.358;10.746;2022-10-31T09:02:40;8.40;;;6.93;;
10013;SDS011;45684;48.358;10.746;2022-10-31T09:05:09;7.80;;;7.10;;
10013;SDS011;45684;48.358;10.746;2022-10-31T09:07:37;7.87;;;6.80;;
10013;SDS011;45684;48.358;10.746;2022-10-31T09:10:05;8.10;;;6.80;;
10013;SDS011;45684;48.358;10.746;2022-10-31T09:12:36;6.87;;;6.13;;
10013;SDS011;45684;48.358;10.746;2022-10-31T09:15:22;8.10;;;7.00;;
10013;SDS011;45684;48.358;10.746;2022-10-31T09:18:02;7.10;;;6.40;;
10013;SDS011;45684;48.358;10.746;2022-10-31T09:20:50;6.37;;;5.77;;
10013;SDS011;45684;48.358;10.746;2022-10-31T09:23:19;6.20;;;5.70;;
10013;SDS011;45684;48.358;10.746;2022-10-31T09:25:48;7.57;;;6.00;;
10013;SDS011;45684;48.358;10.746;2022-10-31T09:28:43;8.20;;;6.27;;
10013;SDS011;45684;48.358;10.746;2022-10-31T09:31:14;6.87;;;6.27;;
10013;SDS011;45684;48.358;10.746;2022-10-31T09:33:53;7.47;;;6.57;;
10013;SDS011;45684;48.358;10.746;2022-10-31T09:36:46;8.53;;;6.50;;
10013;SDS011;45684;48.358;10.746;2022-10-31T09:39:18;7.87;;;6.23;;
10013;SDS011;45684;48.358;10.746;2022-10-31T09:41:58;6.93;;;6.23;;
10013;SDS011;45684;48.358;10.746;2022-10-31T09:44:40;6.53;;;5.87;;
10013;SDS011;45684;48.358;10.746;2022-10-31T09:47:35;9.90;;;6.20;;
10013;SDS011;45684;48.358;10.746;2022-10-31T09:50:32;7.40;;;5.73;;
10013;SDS011;45684;48.358;10.746;2022-10-31T09:53:37;8.37;;;6.30;;
10013;SDS011;45684;48.358;10.746;2022-10-31T09:56:13;7.23;;;5.93;;
10013;SDS011;45684;48.358;10.746;2022-10-31T09:58:45;7.90;;;6.30;;
10013;SDS011;45684;48.358;10.746;2022-10-31T10:01:22;9.33;;;5.87;;
10013;SDS011;45684;48.358;10.746;2022-10-31T10:03:58;8.73;;;5.93;;
10013;SDS011;45684;48.358;10.746;2022-10-31T10:06:50;7.37;;;5.53;;
10013;SDS011;45684;48.358;10.746;2022-10-31T10:09:49;9.47;;;6.53;;
10013;SDS011;45684;48.358;10.746;2022-10-31T10:12:42;8.83;;;6.47;;
10013;SDS011;45684;48.358;10.746;2022-10-31T10:15:35;11.30;;;6.93;;
10013;SDS011;45684;48.358;10.746;2022-10-31T10:18:20;9.77;;;7.33;;
10013;SDS011;45684;48.358;10.746;2022-10-31T10:20:59;9.47;;;7.17;;
10013;SDS011;45684;48.358;10.746;2022-10-31T10:23:40;8.80;;;7.27;;
10013;SDS011;45684;48.358;10.746;2022-10-31T10:26:20;11.33;;;7.33;;
10013;SDS011;45684;48.358;10.746;2022-10-31T10:28:49;11.53;;;7.83;;
10013;SDS011;45684;48.358;10.746;2022-10-31T10:31:24;10.17;;;7.47;;
10013;SDS011;45684;48.358;10.746;2022-10-31T10:33:59;9.93;;;7.80;;
10013;SDS011;45684;48.358;10.746;2022-10-31T10:36:31;10.03;;;8.00;;
10013;SDS011;45684;48.358;10.746;2022-10-31T10:39:04;12.00;;;7.93;;
10013;SDS011;45684;48.358;10.746;2022-10-31T10:41:41;11.40;;;8.77;;
10013;SDS011;45684;48.358;10.746;2022-10-31T10:44:12;12.07;;;7.90;;
10013;SDS011;45684;48.358;10.746;2022-10-31T10:46:42;11.57;;;8.03;;
10013;SDS011;45684;48.358;10.746;2022-10-31T10:49:31;11.53;;;7.70;;
10013;SDS011;45684;48.358;10.746;2022-10-31T10:52:05;11.30;;;7.73;;
10013;SDS011;45684;48.358;10.746;2022-10-31T10:55:03;10.80;;;8.13;;
10013;SDS011;45684;48.358;10.746;2022-10-31T10:57:45;10.03;;;7.70;;
10013;SDS011;45684;48.358;10.746;2022-10-31T11:00:21;9.47;;;7.67;;
10013;SDS011;45684;48.358;10.746;2022-10-31T11:02:50;12.00;;;8.20;;
10013;SDS011;45684;48.358;10.746;2022-10-31T11:05:23;13.57;;;7.67;;
10013;SDS011;45684;48.358;10.746;2022-10-31T11:07:55;10.43;;;7.57;;
10013;SDS011;45684;48.358;10.746;2022-10-31T11:10:23;11.17;;;7.10;;
10013;SDS011;45684;48.358;10.746;2022-10-31T11:13:00;11.67;;;7.87;;
10013;SDS011;45684;48.358;10.746;2022-10-31T11:15:32;9.63;;;7.50;;
10013;SDS011;45684;48.358;10.746;2022-10-31T11:18:04;10.90;;;7.67;;
10013;SDS011;45684;48.358;10.746;2022-10-31T11:20:33;9.77;;;7.63;;
10013;SDS011;45684;48.358;10.746;2022-10-31T11:23:04;13.37;;;8.07;;
10013;SDS011;45684;48.358;10.746;2022-10-31T11:25:50;13.03;;;8.23;;
10013;SDS011;45684;48.358;10.746;2022-10-31T11:28:21;10.80;;;8.03;;
10013;SDS011;45684;48.358;10.746;2022-10-31T11:30:50;12.57;;;8.80;;
10013;SDS011;45684;48.358;10.746;2022-10-31T11:33:22;13.40;;;8.20;;
10013;SDS011;45684;48.358;10.746;2022-10-31T11:35:55;12.40;;;9.10;;
10013;SDS011;45684;48.358;10.746;2022-10-31T11:38:26;11.03;;;8.23;;
10013;SDS011;45684;48.358;10.746;2022-10-31T11:41:02;11.47;;;8.10;;
10013;SDS011;45684;48.358;10.746;2022-10-31T11:43:38;9.47;;;7.70;;
10013;SDS011;45684;48.358;10.746;2022-10-31T11:46:10;12.33;;;8.30;;
10013;SDS011;45684;48.358;10.746;2022-10-31T11:48:45;12.60;;;8.10;;
10013;SDS011;45684;48.358;10.746;2022-10-31T11:51:19;11.17;;;8.00;;
10013;SDS011;45684;48.358;10.746;2022-10-31T11:53:50;10.37;;;8.03;;
10013;SDS011;45684;48.358;10.746;2022-10-31T11:56:25;9.67;;;8.33;;
10013;SDS011;45684;48.358;10.746;2022-10-31T11:59:01;11.97;;;8.27;;
10013;SDS011;45684;48.358;10.746;2022-10-31T12:01:30;12.77;;;8.60;;
10013;SDS011;45684;48.358;10.746;2022-10-31T12:04:02;11.40;;;8.70;;
10013;SDS011;45684;48.358;10.746;2022-10-31T12:06:34;11.80;;;8.10;;
10013;SDS011;45684;48.358;10.746;2022-10-31T12:09:04;10.40;;;8.43;;
10013;SDS011;45684;48.358;10.746;2022-10-31T12:11:48;12.57;;;9.27;;
10013;SDS011;45684;48.358;10.746;2022-10-31T12:14:37;13.03;;;9.20;;
10013;SDS011;45684;48.358;10.746;2022-10-31T12:17:15;12.13;;;9.47;;
10013;SDS011;45684;48.358;10.746;2022-10-31T12:19:49;11.87;;;9.70;;
10013;SDS011;45684;48.358;10.746;2022-10-31T12:22:28;12.33;;;9.90;;
10013;SDS011;45684;48.358;10.746;2022-10-31T12:25:12;10.23;;;8.60;;
10013;SDS011;45684;48.358;10.746;2022-10-31T12:27:52;12.30;;;9.83;;
10013;SDS011;45684;48.358;10.746;2022-10-31T12:30:40;11.73;;;9.60;;
10013;SDS011;45684;48.358;10.746;2022-10-31T12:33:41;14.73;;;10.53;;
10013;SDS011;45684;48.358;10.746;2022-10-31T12:36:27;11.27;;;9.63;;
10013;SDS011;45684;48.358;10.746;2022-10-31T12:39:09;14.27;;;10.20;;
10013;SDS011;45684;48.358;10.746;2022-10-31T12:41:51;13.03;;;10.47;;
10013;SDS011;45684;48.358;10.746;2022-10-31T12:44:43;13.00;;;10.30;;
10013;SDS011;45684;48.358;10.746;2022-10-31T12:47:38;14.93;;;11.00;;
10013;SDS011;45684;48.358;10.746;2022-10-31T12:50:27;12.10;;;10.43;;
10013;SDS011;45684;48.358;10.746;2022-10-31T12:53:06;14.73;;;11.10;;
10013;SDS011;45684;48.358;10.746;2022-10-31T12:55:48;12.90;;;10.90;;
10013;SDS011;45684;48.358;10.746;2022-10-31T12:58:26;13.67;;;11.07;;
10013;SDS011;45684;48.358;10.746;2022-10-31T13:01:02;13.63;;;10.63;;
10013;SDS011;45684;48.358;10.746;2022-10-31T13:03:41;15.47;;;11.13;;
10013;SDS011;45684;48.358;10.746;2022-10-31T13:06:13;13.40;;;10.87;;
10013;SDS011;45684;48.358;10.746;2022-10-31T13:08:47;12.07;;;10.57;;
10013;SDS011;45684;48.358;10.746;2022-10-31T13:11:19;15.43;;;11.27;;
10013;SDS011;45684;48.358;10.746;2022-10-31T13:13:54;13.37;;;11.33;;
10013;SDS011;45684;48.358;10.746;2022-10-31T13:16:28;13.53;;;11.57;;
10013;SDS011;45684;48.358;10.746;2022-10-31T13:19:01;13.60;;;10.67;;
10013;SDS011;45684;48.358;10.746;2022-10-31T13:21:35;16.37;;;11.97;;
10013;SDS011;45684;48.358;10.746;2022-10-31T13:24:07;13.33;;;11.93;;
10013;SDS011;45684;48.358;10.746;2022-10-31T13:26:40;14.70;;;12.03;;
10013;SDS011;45684;48.358;10.746;2022-10-31T13:29:15;14.37;;;11.67;;
10013;SDS011;45684;48.358;10.746;2022-10-31T13:31:51;15.77;;;12.27;;
10013;SDS011;45684;48.358;10.746;2022-10-31T13:34:24;15.33;;;12.13;;
10013;SDS011;45684;48.358;10.746;2022-10-31T13:36:57;14.50;;;11.83;;
10013;SDS011;45684;48.358;10.746;2022-10-31T13:39:34;13.97;;;12.30;;
10013;SDS011;45684;48.358;10.746;2022-10-31T13:42:18;13.97;;;12.30;;
10013;SDS011;45684;48.358;10.746;2022-10-31T13:44:49;14.63;;;12.33;;
10013;SDS011;45684;48.358;10.746;2022-10-31T13:47:22;13.53;;;12.23;;
10013;SDS011;45684;48.358;10.746;2022-10-31T13:50:04;13.67;;;12.27;;
10013;SDS011;45684;48.358;10.746;2022-10-31T13:52:46;15.33;;;12.83;;
10013;SDS011;45684;48.358;10.746;2022-10-31T13:58:04;16.30;;;13.20;;
10013;SDS011;45684;48.358;10.746;2022-10-31T14:00:46;14.77;;;13.13;;
10013;SDS011;45684;48.358;10.746;2022-10-31T14:03:26;13.80;;;12.40;;
10013;SDS011;45684;48.358;10.746;2022-10-31T14:06:16;13.97;;;12.47;;
10013;SDS011;45684;48.358;10.746;2022-10-31T14:08:46;15.03;;;13.50;;
10013;SDS011;45684;48.358;10.746;2022-10-31T14:11:19;14.07;;;12.57;;
10013;SDS011;45684;48.358;10.746;2022-10-31T14:13:58;14.70;;;13.20;;
10013;SDS011;45684;48.358;10.746;2022-10-31T14:16:28;14.50;;;13.00;;
10013;SDS011;45684;48.358;10.746;2022-10-31T14:18:59;14.93;;;13.33;;
10013;SDS011;45684;48.358;10.746;2022-10-31T14:21:36;14.70;;;13.23;;
10013;SDS011;45684;48.358;10.746;2022-10-31T14:24:13;15.93;;;14.20;;
10013;SDS011;45684;48.358;10.746;2022-10-31T14:26:51;15.33;;;13.83;;
10013;SDS011;45684;48.358;10.746;2022-10-31T14:29:21;15.53;;;14.00;;
10013;SDS011;45684;48.358;10.746;2022-10-31T14:31:52;16.53;;;14.83;;
10013;SDS011;45684;48.358;10.746;2022-10-31T14:34:23;16.60;;;14.60;;
10013;SDS011;45684;48.358;10.746;2022-10-31T14:37:03;16.57;;;14.77;;
10013;SDS011;45684;48.358;10.746;2022-10-31T14:39:44;17.30;;;15.50;;
10013;SDS011;45684;48.358;10.746;2022-10-31T14:42:26;17.30;;;15.50;;
10013;SDS011;45684;48.358;10.746;2022-10-31T14:45:09;18.43;;;16.30;;
10013;SDS011;45684;48.358;10.746;2022-10-31T14:47:47;18.23;;;15.47;;
10013;SDS011;45684;48.358;10.746;2022-10-31T14:50:23;19.90;;;15.93;;
10013;SDS011;45684;48.358;10.746;2022-10-31T14:53:01;16.83;;;14.97;;
10013;SDS011;45684;48.358;10.746;2022-10-31T14:55:31;16.47;;;14.77;;
10013;SDS011;45684;48.358;10.746;2022-10-31T14:58:00;16.73;;;15.00;;
10013;SDS011;45684;48.358;10.746;2022-10-31T15:00:31;15.50;;;13.93;;
10013;SDS011;45684;48.358;10.746;2022-10-31T15:03:05;15.57;;;13.97;;
10013;SDS011;45684;48.358;10.746;2022-10-31T15:05:44;15.87;;;14.23;;
10013;SDS011;45684;48.358;10.746;2022-10-31T15:08:27;15.73;;;14.17;;
10013;SDS011;45684;48.358;10.746;2022-10-31T15:11:02;15.07;;;13.57;;
10013;SDS011;45684;48.358;10.746;2022-10-31T15:13:40;15.60;;;14.10;;
10013;SDS011;45684;48.358;10.746;2022-10-31T15:16:09;14.33;;;12.93;;
10013;SDS011;45684;48.358;10.746;2022-10-31T15:18:45;14.70;;;13.30;;
10013;SDS011;45684;48.358;10.746;2022-10-31T15:21:16;14.93;;;13.43;;